createdAt,value
2022-09-28T00:02:18.998Z,12.55
2022-09-28T00:05:47.326Z,12.56
2022-09-28T00:09:14.562Z,12.50
2022-09-28T00:12:42.063Z,12.46
2022-09-28T00:16:12.209Z,12.41
2022-09-28T00:19:39.339Z,12.36
2022-09-28T00:23:06.249Z,12.33
2022-09-28T00:26:34.672Z,12.28
2022-09-28T00:30:02.072Z,12.23
2022-09-28T00:33:29.216Z,12.20
2022-09-28T00:36:56.511Z,12.21
2022-09-28T00:40:23.615Z,12.20
2022-09-28T00:43:51.171Z,12.18
2022-09-28T00:47:39.424Z,12.16
2022-09-28T00:51:11.935Z,12.15
2022-09-28T00:54:42.862Z,12.14
2022-09-28T00:58:14.747Z,12.10
2022-09-28T01:01:44.065Z,12.06
2022-09-28T01:05:12.984Z,12.05
2022-09-28T01:08:41.069Z,12.04
2022-09-28T01:12:09.555Z,12.04
2022-09-28T01:15:44.901Z,12.04
2022-09-28T01:19:33.931Z,12.04
2022-09-28T01:23:27.228Z,11.99
2022-09-28T01:27:15.390Z,12.00
2022-09-28T01:30:49.062Z,12.03
2022-09-28T01:34:21.212Z,12.03
2022-09-28T01:37:54.434Z,11.98
2022-09-28T01:41:24.052Z,11.94
2022-09-28T01:44:55.007Z,11.96
2022-09-28T01:48:31.512Z,11.97
2022-09-28T01:52:03.803Z,11.99
2022-09-28T01:55:35.750Z,11.98
2022-09-28T01:59:08.395Z,11.98
2022-09-28T02:02:41.043Z,12.00
2022-09-28T02:06:15.968Z,12.03
2022-09-28T02:09:47.955Z,12.03
2022-09-28T02:13:20.120Z,12.04
2022-09-28T02:16:49.394Z,12.04
2022-09-28T02:20:17.620Z,12.04
2022-09-28T02:23:54.249Z,12.03
2022-09-28T02:27:30.401Z,12.05
2022-09-28T02:30:57.323Z,12.10
2022-09-28T02:34:24.374Z,12.12
2022-09-28T02:37:52.325Z,12.13
2022-09-28T02:41:34.913Z,12.14
2022-09-28T02:45:19.077Z,12.13
2022-09-28T02:49:10.585Z,12.13
2022-09-28T02:53:00.949Z,12.07
2022-09-28T02:56:46.432Z,11.97
2022-09-28T03:00:17.994Z,11.89
2022-09-28T03:03:52.369Z,11.85
2022-09-28T03:07:26.845Z,11.82
2022-09-28T03:11:01.041Z,11.82
2022-09-28T03:14:28.073Z,11.84
2022-09-28T03:17:57.495Z,11.83
2022-09-28T03:21:25.065Z,11.84
2022-09-28T03:24:52.226Z,11.85
2022-09-28T03:28:19.119Z,11.83
2022-09-28T03:31:49.428Z,11.86
2022-09-28T03:35:37.174Z,11.86
2022-09-28T03:39:12.952Z,11.83
2022-09-28T03:42:45.231Z,11.81
2022-09-28T03:46:12.464Z,11.75
2022-09-28T03:49:43.280Z,11.69
2022-09-28T03:53:11.014Z,11.68
2022-09-28T03:56:38.194Z,11.64
2022-09-28T04:00:05.662Z,11.57
2022-09-28T04:03:40.466Z,11.48
2022-09-28T04:07:07.411Z,11.39
2022-09-28T04:10:34.500Z,11.35
2022-09-28T04:14:02.278Z,11.31
2022-09-28T04:17:30.471Z,11.25
2022-09-28T04:21:12.117Z,11.24
2022-09-28T04:25:00.226Z,11.22
2022-09-28T04:28:46.779Z,11.19
2022-09-28T04:32:14.490Z,11.15
2022-09-28T04:35:41.624Z,11.09
2022-09-28T04:39:09.488Z,11.02
2022-09-28T04:42:37.473Z,10.97
2022-09-28T04:46:06.642Z,10.88
2022-09-28T04:49:42.970Z,10.79
2022-09-28T04:53:25.913Z,10.71
2022-09-28T04:56:53.617Z,10.61
2022-09-28T05:00:20.601Z,10.51
2022-09-28T05:04:03.336Z,10.43
2022-09-28T05:07:46.220Z,10.39
2022-09-28T05:11:16.204Z,10.36
2022-09-28T05:14:43.254Z,10.35
2022-09-28T05:18:19.938Z,10.34
2022-09-28T05:22:00.776Z,10.37
2022-09-28T05:25:27.664Z,10.42
2022-09-28T05:29:16.653Z,10.47
2022-09-28T05:33:06.722Z,10.51
2022-09-28T05:36:53.854Z,10.54
2022-09-28T05:40:20.890Z,10.57
2022-09-28T05:43:49.097Z,10.61
2022-09-28T05:47:15.843Z,10.64
2022-09-28T05:50:43.793Z,10.68
2022-09-28T05:54:10.195Z,10.70
2022-09-28T05:57:41.391Z,10.66
2022-09-28T06:01:08.178Z,10.60
2022-09-28T06:04:35.755Z,10.57
2022-09-28T06:08:04.547Z,10.54
2022-09-28T06:11:34.233Z,10.52
2022-09-28T06:15:11.855Z,10.51
2022-09-28T06:18:38.764Z,10.48
2022-09-28T06:23:01.960Z,10.50
2022-09-28T06:26:24.077Z,10.52
2022-09-28T06:29:50.704Z,10.56
2022-09-28T06:38:11.689Z,10.61
2022-09-28T06:41:40.145Z,10.56
2022-09-28T06:45:16.282Z,10.56
2022-09-28T06:48:50.932Z,10.57
2022-09-28T06:52:23.400Z,10.58
2022-09-28T06:56:14.857Z,10.60
2022-09-28T06:59:42.130Z,10.59
2022-09-28T07:03:13.789Z,10.57
2022-09-28T07:07:16.184Z,10.62
2022-09-28T07:11:06.428Z,10.65
2022-09-28T07:15:16.105Z,10.68
2022-09-28T07:18:44.511Z,10.76
2022-09-28T07:22:18.433Z,10.80
2022-09-28T07:25:49.482Z,10.83
2022-09-28T07:29:33.967Z,10.88
2022-09-28T07:33:23.175Z,10.92
2022-09-28T07:36:59.719Z,10.96
2022-09-28T07:40:48.185Z,10.97
2022-09-28T07:44:17.749Z,10.93
2022-09-28T07:47:53.056Z,10.90
2022-09-28T07:51:57.978Z,10.91
2022-09-28T07:55:48.025Z,10.91
2022-09-28T07:59:32.052Z,10.89
2022-09-28T08:03:19.205Z,10.95
2022-09-28T08:06:46.358Z,11.05
2022-09-28T08:15:40.919Z,11.26
2022-09-28T08:19:23.016Z,11.33
2022-09-28T08:22:50.153Z,11.35
2022-09-28T08:26:17.473Z,11.31
2022-09-28T08:29:45.422Z,11.34
2022-09-28T08:33:31.039Z,11.38
2022-09-28T08:37:16.765Z,11.37
2022-09-28T08:41:08.685Z,11.38
2022-09-28T08:44:56.008Z,11.42
2022-09-28T08:49:23.815Z,11.51
2022-09-28T08:53:02.387Z,11.58
2022-09-28T08:56:57.865Z,11.81
2022-09-28T09:00:37.245Z,12.05
2022-09-28T09:04:09.342Z,12.18
2022-09-28T09:08:14.079Z,12.31
2022-09-28T09:11:58.672Z,12.40
2022-09-28T09:19:13.068Z,12.33
2022-09-28T09:23:00.777Z,12.16
2022-09-28T09:26:39.582Z,12.19
2022-09-28T09:30:19.566Z,12.33
2022-09-28T09:34:13.968Z,12.56
2022-09-28T09:38:17.863Z,12.78
2022-09-28T09:42:22.423Z,12.81
2022-09-28T09:46:18.601Z,12.80
2022-09-28T09:50:05.467Z,12.82
2022-09-28T09:53:43.828Z,12.88
2022-09-28T09:57:18.480Z,12.91
2022-09-28T10:01:08.665Z,12.85
2022-09-28T10:04:59.538Z,12.86
2022-09-28T10:08:36.053Z,12.87
2022-09-28T10:12:04.250Z,12.95
2022-09-28T10:15:33.192Z,12.95
2022-09-28T10:19:13.772Z,12.99
2022-09-28T10:23:08.405Z,13.11
2022-09-28T10:26:40.656Z,13.16
2022-09-28T10:30:24.234Z,13.20
2022-09-28T10:33:54.723Z,13.34
2022-09-28T10:37:24.528Z,13.41
2022-09-28T10:41:23.935Z,13.67
2022-09-28T10:45:01.254Z,13.89
2022-09-28T10:48:47.798Z,14.01
2022-09-28T10:52:33.761Z,14.09
2022-09-28T10:56:24.572Z,14.20
2022-09-28T10:59:56.269Z,14.14
2022-09-28T11:03:29.461Z,13.94
2022-09-28T11:07:02.210Z,13.71
2022-09-28T11:10:33.256Z,13.60
2022-09-28T11:14:37.127Z,13.46
2022-09-28T11:18:28.445Z,13.43
2022-09-28T11:21:56.158Z,13.59
2022-09-28T11:25:33.255Z,13.68
2022-09-28T11:29:00.871Z,13.82
2022-09-28T11:32:49.239Z,14.25
2022-09-28T11:36:32.963Z,14.64
2022-09-28T11:40:11.532Z,14.82
2022-09-28T11:43:57.529Z,14.84
2022-09-28T11:47:39.531Z,14.89
2022-09-28T11:51:13.060Z,14.95
2022-09-28T11:54:47.746Z,15.12
2022-09-28T11:58:22.715Z,15.39
2022-09-28T12:01:54.831Z,15.69
2022-09-28T12:05:51.314Z,15.85
2022-09-28T12:09:26.375Z,15.71
2022-09-28T12:13:04.962Z,15.57
2022-09-28T12:20:28.669Z,15.34
2022-09-28T12:23:58.747Z,15.35
2022-09-28T12:27:32.233Z,15.26
2022-09-28T12:31:09.258Z,15.17
2022-09-28T12:34:36.958Z,15.07
2022-09-28T12:38:25.010Z,15.01
2022-09-28T12:42:09.880Z,14.90
2022-09-28T12:46:12.067Z,14.82
2022-09-28T12:54:21.037Z,14.72
2022-09-28T12:58:09.173Z,14.72
2022-09-28T13:02:03.815Z,14.73
2022-09-28T13:06:19.372Z,14.74
2022-09-28T13:10:01.916Z,14.73
2022-09-28T13:13:46.900Z,14.69
2022-09-28T13:17:28.359Z,14.61
2022-09-28T13:21:06.398Z,14.55
2022-09-28T13:24:47.239Z,14.54
2022-09-28T13:28:16.962Z,14.53
2022-09-28T13:31:50.835Z,14.48
2022-09-28T13:35:23.497Z,14.50
2022-09-28T13:38:52.597Z,14.61
2022-09-28T13:42:44.578Z,14.80
2022-09-28T13:46:22.535Z,15.00
2022-09-28T13:50:02.161Z,15.20
2022-09-28T13:53:42.340Z,15.40
2022-09-28T13:57:19.983Z,15.40
2022-09-28T14:00:52.103Z,15.36
2022-09-28T14:04:22.685Z,15.27
2022-09-28T14:08:29.395Z,15.18
2022-09-28T14:12:01.534Z,15.09
2022-09-28T14:15:47.304Z,15.00
2022-09-28T14:19:20.943Z,14.92
2022-09-28T14:23:11.713Z,14.85
2022-09-28T14:27:15.015Z,14.77
2022-09-28T14:30:56.210Z,14.70
2022-09-28T14:34:42.502Z,14.63
2022-09-28T14:38:36.294Z,14.58
2022-09-28T14:42:13.071Z,14.53
2022-09-28T14:45:44.534Z,14.52
2022-09-28T14:49:41.595Z,14.51
2022-09-28T14:53:18.269Z,14.50
2022-09-28T14:56:59.421Z,14.53
2022-09-28T15:00:32.247Z,14.52
2022-09-28T15:04:06.092Z,14.51
2022-09-28T15:07:47.306Z,14.45
2022-09-28T15:11:21.683Z,14.40
2022-09-28T15:14:53.319Z,14.34
2022-09-28T15:18:49.715Z,14.28
2022-09-28T15:22:22.604Z,14.19
2022-09-28T15:25:56.325Z,14.09
2022-09-28T15:29:31.439Z,14.03
2022-09-28T15:33:24.584Z,13.96
2022-09-28T15:36:57.891Z,13.89
2022-09-28T15:40:33.851Z,13.85
2022-09-28T15:44:37.266Z,13.80
2022-09-28T15:48:31.243Z,13.75
2022-09-28T15:52:03.265Z,13.73
2022-09-28T15:55:34.047Z,13.71
2022-09-28T15:59:26.939Z,13.70
2022-09-28T16:03:19.039Z,13.69
2022-09-28T16:06:46.746Z,13.67
2022-09-28T16:10:37.591Z,13.65
2022-09-28T16:14:21.410Z,13.60
2022-09-28T16:17:55.706Z,13.53
2022-09-28T16:21:43.688Z,13.47
2022-09-28T16:25:27.661Z,13.38
2022-09-28T16:28:56.656Z,13.24
2022-09-28T16:32:49.787Z,13.11
2022-09-28T16:36:18.681Z,12.97
2022-09-28T16:39:45.877Z,12.88
2022-09-28T16:43:27.969Z,12.81
2022-09-28T16:47:01.280Z,12.71
2022-09-28T16:50:40.759Z,12.61
2022-09-28T16:54:36.998Z,12.51
2022-09-28T16:58:09.324Z,12.40
2022-09-28T17:01:44.471Z,12.28
2022-09-28T17:05:24.153Z,12.18
2022-09-28T17:08:59.266Z,12.03
2022-09-28T17:12:30.495Z,11.85
2022-09-28T17:16:01.862Z,11.72
2022-09-28T17:19:32.243Z,11.61
2022-09-28T17:23:01.604Z,11.51
2022-09-28T17:26:35.019Z,11.44
2022-09-28T17:30:02.010Z,11.39
2022-09-28T17:33:30.129Z,11.34
2022-09-28T17:36:58.208Z,11.32
2022-09-28T17:40:28.735Z,11.29
2022-09-28T17:43:56.539Z,11.26
2022-09-28T17:47:23.187Z,11.25
2022-09-28T17:50:51.465Z,11.28
2022-09-28T17:54:20.966Z,11.33
2022-09-28T17:57:49.163Z,11.40
2022-09-28T18:01:16.355Z,11.42
2022-09-28T18:04:52.046Z,11.47
2022-09-28T18:08:25.075Z,11.51
2022-09-28T18:12:00.760Z,11.51
2022-09-28T18:15:32.775Z,11.51
2022-09-28T18:19:02.262Z,11.52
2022-09-28T18:22:47.215Z,11.50
2022-09-28T18:26:20.834Z,11.47
2022-09-28T18:29:49.854Z,11.44
2022-09-28T18:33:21.224Z,11.39
2022-09-28T18:36:50.386Z,11.34
2022-09-28T18:40:18.181Z,11.32
2022-09-28T18:43:50.528Z,11.31
2022-09-28T18:47:23.881Z,11.27
2022-09-28T18:50:51.813Z,11.24
2022-09-28T18:54:21.910Z,11.23
2022-09-28T18:57:51.760Z,11.26
2022-09-28T19:01:36.551Z,11.29
2022-09-28T19:05:07.273Z,11.33
2022-09-28T19:08:34.164Z,11.40
2022-09-28T19:12:06.547Z,11.44
2022-09-28T19:15:41.915Z,11.45
2022-09-28T19:19:12.163Z,11.43
2022-09-28T19:22:40.100Z,11.41
2022-09-28T19:26:11.520Z,11.38
2022-09-28T19:29:39.174Z,11.33
2022-09-28T19:33:07.285Z,11.26
2022-09-28T19:36:36.770Z,11.22
2022-09-28T19:40:06.117Z,11.17
2022-09-28T19:43:48.720Z,11.14
2022-09-28T19:47:21.943Z,11.10
2022-09-28T19:51:02.264Z,11.11
2022-09-28T19:54:36.412Z,11.13
2022-09-28T19:58:07.158Z,11.13
2022-09-28T20:01:35.301Z,11.16
2022-09-28T20:05:03.301Z,11.19
2022-09-28T20:08:34.125Z,11.22
2022-09-28T20:12:07.240Z,11.26
2022-09-28T20:15:37.804Z,11.29
2022-09-28T20:19:07.738Z,11.31
2022-09-28T20:22:35.410Z,11.29
2022-09-28T20:26:10.430Z,11.26
2022-09-28T20:29:39.612Z,11.23
2022-09-28T20:33:15.703Z,11.20
2022-09-28T20:36:49.360Z,11.17
2022-09-28T20:40:20.599Z,11.11
2022-09-28T20:43:50.920Z,11.12
2022-09-28T20:47:22.224Z,11.12
2022-09-28T20:51:06.250Z,11.13
2022-09-28T20:54:38.361Z,11.14
2022-09-28T20:58:09.132Z,11.15
2022-09-28T21:01:36.734Z,11.19
2022-09-28T21:05:08.451Z,11.24
2022-09-28T21:08:37.753Z,11.28
2022-09-28T21:12:07.497Z,11.32
2022-09-28T21:15:42.376Z,11.37
2022-09-28T21:19:11.780Z,11.36
2022-09-28T21:22:40.400Z,11.35
2022-09-28T21:26:25.890Z,11.34
2022-09-28T21:29:56.772Z,11.33
2022-09-28T21:33:24.652Z,11.26
2022-09-28T21:36:55.297Z,11.24
2022-09-28T21:40:24.434Z,11.19
2022-09-28T21:43:52.455Z,11.14
2022-09-28T21:47:19.518Z,11.12
2022-09-28T21:50:59.046Z,11.11
2022-09-28T21:54:30.712Z,11.11
2022-09-28T21:58:01.480Z,11.11
2022-09-28T22:01:33.056Z,11.13
2022-09-28T22:05:01.292Z,11.12
2022-09-28T22:08:28.534Z,11.10
2022-09-28T22:11:57.722Z,11.12
2022-09-28T22:15:25.643Z,11.11
2022-09-28T22:18:53.705Z,11.06
2022-09-28T22:22:26.129Z,11.04
2022-09-28T22:26:01.411Z,11.03
2022-09-28T22:29:28.669Z,11.01
2022-09-28T22:32:55.493Z,11.00
2022-09-28T22:36:25.845Z,11.01
2022-09-28T22:39:53.964Z,10.96
2022-09-28T22:43:21.322Z,10.90
2022-09-28T22:47:15.422Z,10.87
2022-09-28T22:50:48.858Z,10.82
2022-09-28T22:54:16.775Z,10.74
2022-09-28T22:57:47.620Z,10.66
2022-09-28T23:01:17.607Z,10.61
2022-09-28T23:04:48.579Z,10.57
2022-09-28T23:08:15.253Z,10.53
2022-09-28T23:11:42.657Z,10.52
2022-09-28T23:15:11.879Z,10.52
2022-09-28T23:18:41.329Z,10.53
2022-09-28T23:22:07.886Z,10.52
2022-09-28T23:25:34.318Z,10.52
2022-09-28T23:29:00.959Z,10.52
2022-09-28T23:32:31.885Z,10.52
2022-09-28T23:36:02.153Z,10.54
2022-09-28T23:39:29.495Z,10.56
2022-09-28T23:42:56.245Z,10.55
2022-09-28T23:46:23.135Z,10.54
2022-09-28T23:49:50.056Z,10.49
2022-09-28T23:53:17.651Z,10.48
2022-09-28T23:56:44.370Z,10.46
